Terminal Aerodrome Forecast
Issued by NWS Medford, OR

Home | Current Version | Previous Version | Text Only | Print | Product List | Glossary On
Versions: 1 2 3 4 5 6 7 8 9 10 11 12 13 14 15 16 17 18 19 20 21 22 23 24 25 26 27
000
FTUS46 KMFR 192346
TAFMFR
TAF
KMFR 192346Z 2000/2024 16006KT P6SM BKN050
     FM200900 16014KT P6SM -RA OVC050
     FM201200 14015G25KT P6SM -RA OVC035
     FM202000 15012KT P6SM -SHRA BKN025 OVC035=

USA.gov is the U.S. government's official web portal to all federal, state and local government web resources and services.